createdAt,value
2022-12-24T04:03:19.242Z,992.83
2022-12-24T04:04:19.187Z,992.88
2022-12-24T04:05:20.320Z,992.83
2022-12-24T04:06:20.298Z,992.86
2022-12-24T04:07:20.330Z,992.84
2022-12-24T04:08:20.328Z,992.78
2022-12-24T04:09:20.323Z,992.85
2022-12-24T04:10:20.298Z,992.86
2022-12-24T04:11:20.265Z,992.80
2022-12-24T04:12:20.239Z,992.84
2022-12-24T04:13:20.245Z,992.79
2022-12-24T04:14:20.275Z,992.77
2022-12-24T04:15:20.259Z,992.81
2022-12-24T04:16:20.253Z,992.81
2022-12-24T04:17:20.236Z,992.88
2022-12-24T04:18:20.213Z,992.84
2022-12-24T04:19:20.220Z,992.83
2022-12-24T04:20:20.217Z,992.86
2022-12-24T04:21:20.215Z,992.88
2022-12-24T04:22:20.214Z,992.91
2022-12-24T04:23:20.176Z,992.93
2022-12-24T04:24:20.157Z,992.88
2022-12-24T04:25:20.162Z,992.91
2022-12-24T04:26:20.147Z,992.92
2022-12-24T04:27:21.242Z,992.94
2022-12-24T04:28:20.119Z,992.95
2022-12-24T04:29:20.145Z,993.02
2022-12-24T04:30:20.108Z,993.01
2022-12-24T04:31:20.214Z,993.07
2022-12-24T04:32:20.167Z,993.04
2022-12-24T04:33:20.100Z,993.05
2022-12-24T04:34:20.068Z,993.02
2022-12-24T04:35:20.088Z,992.98
2022-12-24T04:36:20.074Z,993.04
2022-12-24T04:37:20.062Z,992.99
2022-12-24T04:38:20.047Z,993.00
2022-12-24T04:39:20.065Z,993.05
2022-12-24T04:40:20.061Z,993.07
2022-12-24T04:41:23.768Z,993.00
2022-12-24T04:42:21.036Z,992.97
2022-12-24T04:43:20.002Z,992.95
2022-12-24T04:44:20.020Z,993.01
2022-12-24T04:45:20.021Z,992.95
2022-12-24T04:46:20.065Z,992.97
2022-12-24T04:47:19.994Z,992.97
2022-12-24T04:48:20.071Z,992.98
2022-12-24T04:49:19.956Z,992.94
2022-12-24T04:50:19.944Z,992.97
2022-12-24T04:51:19.967Z,992.97
2022-12-24T04:52:19.952Z,993.03
2022-12-24T04:53:19.968Z,993.04
2022-12-24T04:54:19.915Z,993.05
2022-12-24T04:55:19.953Z,992.94
2022-12-24T04:56:19.955Z,992.99
2022-12-24T04:57:19.920Z,992.92
2022-12-24T04:58:19.949Z,992.94
2022-12-24T04:59:19.929Z,992.90
2022-12-24T05:00:19.877Z,992.91
2022-12-24T05:01:19.987Z,993.00
2022-12-24T05:02:20.070Z,992.94
2022-12-24T05:03:19.986Z,993.01
2022-12-24T05:04:19.900Z,992.96
2022-12-24T05:05:19.870Z,992.99
2022-12-24T05:06:19.854Z,992.95
2022-12-24T05:07:19.813Z,992.96
2022-12-24T05:08:19.830Z,992.95
2022-12-24T05:09:19.853Z,992.90
2022-12-24T05:10:19.819Z,992.92
2022-12-24T05:11:19.813Z,992.91
2022-12-24T05:12:19.803Z,992.91
2022-12-24T05:13:19.785Z,992.91
2022-12-24T05:14:19.800Z,992.94
2022-12-24T05:15:19.786Z,992.96
2022-12-24T05:16:19.895Z,992.88
2022-12-24T05:17:19.757Z,992.89
2022-12-24T05:18:19.742Z,992.92
2022-12-24T05:19:19.749Z,992.96
2022-12-24T05:20:19.736Z,992.94
2022-12-24T05:21:19.733Z,992.97
2022-12-24T05:22:19.733Z,992.93
2022-12-24T05:23:19.739Z,992.97
2022-12-24T05:24:19.755Z,992.95
2022-12-24T05:25:19.743Z,992.97
2022-12-24T05:26:19.679Z,993.00
2022-12-24T05:27:19.732Z,993.04
2022-12-24T05:28:19.669Z,993.05
2022-12-24T05:29:19.730Z,993.09
2022-12-24T05:30:19.723Z,993.09
2022-12-24T05:31:19.689Z,993.08
2022-12-24T05:32:19.694Z,993.14
2022-12-24T05:33:19.693Z,993.13
2022-12-24T05:34:19.638Z,993.20
2022-12-24T05:35:19.633Z,993.17
2022-12-24T05:36:19.605Z,993.18
2022-12-24T05:37:19.622Z,993.16
2022-12-24T05:38:19.587Z,993.24
2022-12-24T05:39:19.580Z,993.25
2022-12-24T05:40:19.588Z,993.28
2022-12-24T05:41:19.589Z,993.35
2022-12-24T05:42:19.628Z,993.36
2022-12-24T05:43:19.569Z,993.37
2022-12-24T05:44:19.554Z,993.39
2022-12-24T05:45:19.540Z,993.37
2022-12-24T05:46:19.715Z,993.36
2022-12-24T05:47:19.510Z,993.33
2022-12-24T05:48:20.493Z,993.38
2022-12-24T05:49:19.525Z,993.37
2022-12-24T05:50:19.515Z,993.38
2022-12-24T05:51:19.491Z,993.45
2022-12-24T05:52:19.501Z,993.49
2022-12-24T05:53:19.485Z,993.46
2022-12-24T05:54:19.484Z,993.45
2022-12-24T05:55:19.610Z,993.42
2022-12-24T05:56:19.453Z,993.46
2022-12-24T05:57:20.433Z,993.38
2022-12-24T05:58:19.543Z,993.39
2022-12-24T05:59:19.457Z,993.38
2022-12-24T06:00:19.439Z,993.36
2022-12-24T06:01:19.517Z,993.34
2022-12-24T06:02:19.487Z,993.33
2022-12-24T06:03:19.415Z,993.34
2022-12-24T06:04:23.177Z,993.35
2022-12-24T06:05:21.371Z,993.40
2022-12-24T06:06:19.410Z,993.47
2022-12-24T06:07:19.348Z,993.47
2022-12-24T06:08:19.345Z,993.48
2022-12-24T06:09:19.368Z,993.50
2022-12-24T06:10:19.350Z,993.39
2022-12-24T06:11:19.362Z,993.42
2022-12-24T06:12:19.332Z,993.44
2022-12-24T06:13:19.309Z,993.53
2022-12-24T06:14:19.327Z,993.51
2022-12-24T06:15:23.892Z,993.56
2022-12-24T06:16:21.345Z,993.56
2022-12-24T06:17:19.291Z,993.55
2022-12-24T06:18:19.272Z,993.57
2022-12-24T06:19:19.345Z,993.55
2022-12-24T06:20:19.441Z,993.64
2022-12-24T06:21:19.253Z,993.59
2022-12-24T06:22:19.227Z,993.55
2022-12-24T06:23:19.231Z,993.62
2022-12-24T06:24:19.235Z,993.52
2022-12-24T06:25:19.506Z,993.61
2022-12-24T06:26:20.238Z,993.59
2022-12-24T06:27:19.288Z,993.60
2022-12-24T06:28:19.186Z,993.68
2022-12-24T06:29:19.188Z,993.63
2022-12-24T06:30:19.199Z,993.70
2022-12-24T06:31:19.249Z,993.67
2022-12-24T06:32:19.197Z,993.74
2022-12-24T06:33:19.180Z,993.72
2022-12-24T06:34:20.139Z,993.69
2022-12-24T06:35:19.172Z,993.73
2022-12-24T06:36:19.153Z,993.74
2022-12-24T06:37:19.152Z,993.74
2022-12-24T06:38:19.163Z,993.80
2022-12-24T06:39:19.160Z,993.84
2022-12-24T06:40:19.160Z,993.74
2022-12-24T06:41:19.112Z,993.79
2022-12-24T06:42:19.133Z,993.86
2022-12-24T06:43:19.114Z,993.84
2022-12-24T06:44:19.098Z,993.87
2022-12-24T06:45:19.079Z,993.82
2022-12-24T06:46:19.096Z,993.81
2022-12-24T06:47:19.087Z,993.86
2022-12-24T06:48:19.046Z,993.82
2022-12-24T06:49:19.036Z,993.92
2022-12-24T06:50:19.065Z,993.83
2022-12-24T06:51:19.022Z,993.87
2022-12-24T06:52:19.017Z,993.81
2022-12-24T06:53:19.047Z,993.90
2022-12-24T06:54:19.018Z,993.97
2022-12-24T06:55:19.018Z,994.00
2022-12-24T06:56:19.032Z,993.92
2022-12-24T06:57:18.984Z,993.90
2022-12-24T06:58:18.989Z,993.96
2022-12-24T06:59:18.954Z,994.03
2022-12-24T07:00:18.970Z,994.00
2022-12-24T07:01:19.080Z,994.02
2022-12-24T07:02:19.049Z,994.00
2022-12-24T07:03:18.964Z,993.93
2022-12-24T07:04:20.591Z,993.97
2022-12-24T07:05:19.935Z,994.03
2022-12-24T07:06:18.932Z,993.98
2022-12-24T07:07:18.902Z,994.11
2022-12-24T07:08:18.895Z,994.03
2022-12-24T07:09:18.897Z,994.02
2022-12-24T07:10:18.889Z,993.96
2022-12-24T07:11:18.910Z,994.01
2022-12-24T07:12:18.854Z,993.96
2022-12-24T07:13:18.874Z,994.01
2022-12-24T07:14:18.837Z,993.94
2022-12-24T07:15:18.871Z,993.95
2022-12-24T07:16:18.938Z,993.95
2022-12-24T07:17:18.974Z,994.04
2022-12-24T07:18:18.848Z,994.05
2022-12-24T07:19:18.806Z,993.97
2022-12-24T07:20:18.810Z,994.01
2022-12-24T07:21:18.816Z,994.05
2022-12-24T07:22:18.809Z,994.02
2022-12-24T07:23:18.772Z,994.01
2022-12-24T07:24:18.802Z,994.08
2022-12-24T07:25:18.758Z,994.05
2022-12-24T07:26:18.817Z,994.10
2022-12-24T07:27:18.816Z,994.07
2022-12-24T07:28:23.842Z,994.14
2022-12-24T07:29:20.755Z,994.19
2022-12-24T07:30:18.719Z,994.25
2022-12-24T07:31:18.809Z,994.27
2022-12-24T07:32:18.720Z,994.29
2022-12-24T07:33:18.737Z,994.27
2022-12-24T07:34:18.708Z,994.29
2022-12-24T07:35:18.712Z,994.36
2022-12-24T07:36:18.690Z,994.40
2022-12-24T07:37:18.689Z,994.39
2022-12-24T07:38:18.683Z,994.32
2022-12-24T07:39:18.749Z,994.44
2022-12-24T07:40:18.677Z,994.40
2022-12-24T07:41:18.678Z,994.46
2022-12-24T07:42:18.651Z,994.41
2022-12-24T07:43:19.633Z,994.39
2022-12-24T07:44:18.672Z,994.39
2022-12-24T07:45:18.670Z,994.37
2022-12-24T07:46:18.631Z,994.44
2022-12-24T07:47:18.597Z,994.52
2022-12-24T07:48:18.630Z,994.54
2022-12-24T07:49:18.587Z,994.53
2022-12-24T07:50:18.636Z,994.49
2022-12-24T07:51:18.581Z,994.58
2022-12-24T07:52:18.568Z,994.61
2022-12-24T07:53:18.568Z,994.58
2022-12-24T07:54:18.559Z,994.56
2022-12-24T07:55:18.549Z,994.63
2022-12-24T07:56:18.637Z,994.61
2022-12-24T07:57:18.556Z,994.65
2022-12-24T07:58:18.499Z,994.62
2022-12-24T07:59:18.516Z,994.65
2022-12-24T08:00:18.492Z,994.64
2022-12-24T08:01:18.559Z,994.65
2022-12-24T08:02:19.084Z,994.62
2022-12-24T08:03:19.623Z,994.66
2022-12-24T08:04:50.987Z,994.58
2022-12-24T08:05:18.977Z,994.68
2022-12-24T08:06:18.574Z,994.76
2022-12-24T08:07:18.469Z,994.69
2022-12-24T08:08:18.498Z,994.70
2022-12-24T08:09:18.448Z,994.71
2022-12-24T08:10:18.435Z,994.80
2022-12-24T08:11:18.457Z,994.83
2022-12-24T08:12:18.473Z,994.79
2022-12-24T08:13:18.409Z,994.80
2022-12-24T08:14:18.479Z,994.81
2022-12-24T08:15:18.488Z,994.77
2022-12-24T08:16:18.446Z,994.76
2022-12-24T08:17:18.411Z,994.81
2022-12-24T08:18:18.533Z,994.82
2022-12-24T08:19:18.423Z,994.85
2022-12-24T08:20:18.411Z,994.84
2022-12-24T08:21:18.364Z,994.86
2022-12-24T08:22:18.412Z,994.84
2022-12-24T08:23:18.539Z,994.86
2022-12-24T08:24:18.355Z,994.88
2022-12-24T08:25:18.429Z,994.85
2022-12-24T08:26:18.301Z,994.94
2022-12-24T08:27:18.323Z,994.94
2022-12-24T08:28:18.345Z,994.93
2022-12-24T08:29:18.299Z,994.99
2022-12-24T08:30:21.310Z,995.04
2022-12-24T08:31:19.304Z,995.06
2022-12-24T08:32:18.281Z,995.12
2022-12-24T08:33:18.387Z,995.03
2022-12-24T08:34:18.390Z,995.13
2022-12-24T08:35:18.292Z,995.13
2022-12-24T08:36:18.280Z,995.11
2022-12-24T08:37:18.297Z,995.16
2022-12-24T08:38:18.250Z,995.15
2022-12-24T08:39:18.235Z,995.17
2022-12-24T08:40:18.225Z,995.22
2022-12-24T08:41:18.270Z,995.16
2022-12-24T08:42:18.331Z,995.23
2022-12-24T08:43:18.190Z,995.21
2022-12-24T08:44:18.259Z,995.21
2022-12-24T08:45:18.174Z,995.20
2022-12-24T08:46:18.280Z,995.23
2022-12-24T08:47:18.180Z,995.25
2022-12-24T08:48:18.179Z,995.27
2022-12-24T08:49:18.151Z,995.27
2022-12-24T08:50:18.123Z,995.32
2022-12-24T08:51:18.320Z,995.34
2022-12-24T08:52:18.186Z,995.32
2022-12-24T08:53:18.111Z,995.34
2022-12-24T08:54:18.121Z,995.32
2022-12-24T08:55:18.122Z,995.32
2022-12-24T08:56:18.080Z,995.34
2022-12-24T08:57:18.111Z,995.32
2022-12-24T08:58:18.099Z,995.32
2022-12-24T08:59:18.088Z,995.34
2022-12-24T09:00:18.081Z,995.29
2022-12-24T09:01:18.234Z,995.32
2022-12-24T09:02:18.203Z,995.33
2022-12-24T09:03:23.617Z,995.37
2022-12-24T09:04:20.030Z,995.39
2022-12-24T09:05:18.087Z,995.38
2022-12-24T09:06:18.042Z,995.33
2022-12-24T09:07:18.070Z,995.34
2022-12-24T09:08:17.997Z,995.35
2022-12-24T09:09:18.031Z,995.39
2022-12-24T09:10:18.029Z,995.35
2022-12-24T09:11:17.962Z,995.35
2022-12-24T09:12:17.995Z,995.33
2022-12-24T09:13:18.063Z,995.31
2022-12-24T09:14:17.987Z,995.35
2022-12-24T09:15:17.939Z,995.38
2022-12-24T09:16:17.947Z,995.37
2022-12-24T09:17:17.953Z,995.34
2022-12-24T09:18:17.924Z,995.46
2022-12-24T09:19:17.927Z,995.42
2022-12-24T09:20:17.920Z,995.44
2022-12-24T09:21:17.885Z,995.45
2022-12-24T09:22:17.891Z,995.46
2022-12-24T09:23:17.882Z,995.52
2022-12-24T09:24:17.870Z,995.55
2022-12-24T09:25:17.856Z,995.52
2022-12-24T09:26:17.938Z,995.57
2022-12-24T09:27:17.869Z,995.55
2022-12-24T09:28:17.885Z,995.61
2022-12-24T09:29:17.816Z,995.55
2022-12-24T09:30:17.846Z,995.64
2022-12-24T09:31:17.844Z,995.63
2022-12-24T09:32:17.907Z,995.69
2022-12-24T09:33:17.835Z,995.65
2022-12-24T09:34:17.834Z,995.65
2022-12-24T09:35:17.823Z,995.64
2022-12-24T09:36:17.819Z,995.66
2022-12-24T09:37:17.827Z,995.76
2022-12-24T09:38:17.833Z,995.76
2022-12-24T09:39:17.761Z,995.78
2022-12-24T09:40:17.849Z,995.76
2022-12-24T09:41:18.783Z,995.85
2022-12-24T09:42:17.850Z,995.90
2022-12-24T09:43:17.720Z,995.85
2022-12-24T09:44:17.799Z,995.91
2022-12-24T09:45:17.702Z,995.89
2022-12-24T09:46:17.782Z,995.88
2022-12-24T09:47:17.970Z,995.86
2022-12-24T09:48:17.714Z,995.97
2022-12-24T09:49:17.827Z,995.90
2022-12-24T09:50:17.758Z,995.96
2022-12-24T09:51:17.683Z,995.94
2022-12-24T09:52:17.647Z,995.96
2022-12-24T09:53:17.691Z,995.99
2022-12-24T09:54:17.656Z,996.03
2022-12-24T09:55:17.719Z,996.01
2022-12-24T09:56:17.803Z,995.99
2022-12-24T09:57:17.757Z,996.02
2022-12-24T09:58:17.714Z,996.01
2022-12-24T09:59:17.620Z,996.09
2022-12-24T10:00:17.604Z,996.12
2022-12-24T10:01:17.729Z,996.17
2022-12-24T10:02:17.748Z,996.17
2022-12-24T10:03:17.652Z,996.18
2022-12-24T10:04:17.641Z,996.20
2022-12-24T10:05:17.641Z,996.18
2022-12-24T10:06:18.000Z,996.16
2022-12-24T10:07:17.560Z,996.19
2022-12-24T10:08:17.543Z,996.22
2022-12-24T10:09:17.729Z,996.18
2022-12-24T10:10:17.563Z,996.24
2022-12-24T10:11:17.499Z,996.18
2022-12-24T10:12:17.681Z,996.20
2022-12-24T10:13:17.619Z,996.18
2022-12-24T10:14:17.560Z,996.16
2022-12-24T10:15:17.529Z,996.06
2022-12-24T10:16:17.554Z,996.00
2022-12-24T10:17:17.581Z,996.07
2022-12-24T10:18:17.449Z,996.10
2022-12-24T10:19:17.630Z,996.01
2022-12-24T10:20:17.616Z,996.08
2022-12-24T10:21:17.442Z,996.03
2022-12-24T10:22:17.514Z,996.00
2022-12-24T10:23:17.496Z,995.97
2022-12-24T10:24:18.467Z,995.99
2022-12-24T10:25:17.481Z,996.00
2022-12-24T10:26:17.434Z,995.84
2022-12-24T10:27:17.419Z,995.94
2022-12-24T10:28:17.386Z,995.86
2022-12-24T10:29:17.448Z,995.84
2022-12-24T10:30:17.851Z,995.77
2022-12-24T10:31:17.502Z,995.81
2022-12-24T10:32:17.364Z,995.81
2022-12-24T10:33:17.447Z,995.82
2022-12-24T10:34:17.363Z,995.71
2022-12-24T10:35:17.380Z,995.74
2022-12-24T10:36:17.340Z,995.78
2022-12-24T10:37:17.371Z,995.73
2022-12-24T10:38:17.312Z,995.72
2022-12-24T10:39:17.345Z,995.75
2022-12-24T10:40:17.286Z,995.81
2022-12-24T10:41:17.274Z,995.82
2022-12-24T10:42:17.359Z,995.87
2022-12-24T10:43:17.278Z,995.92
2022-12-24T10:44:17.343Z,995.87
2022-12-24T10:45:17.262Z,995.86
2022-12-24T10:46:17.280Z,995.94
2022-12-24T10:47:17.309Z,995.99
2022-12-24T10:48:17.263Z,996.00
2022-12-24T10:49:17.312Z,995.94
2022-12-24T10:50:17.205Z,995.95
2022-12-24T10:51:17.223Z,995.88
2022-12-24T10:52:17.193Z,995.92
2022-12-24T10:53:17.261Z,995.90
2022-12-24T10:54:22.497Z,995.91
2022-12-24T10:55:19.193Z,995.95
2022-12-24T10:56:17.187Z,995.93
2022-12-24T10:57:17.240Z,996.00
2022-12-24T10:58:17.204Z,995.92
2022-12-24T10:59:49.665Z,995.98
2022-12-24T11:00:17.166Z,995.99
2022-12-24T11:01:17.255Z,996.00
2022-12-24T11:02:17.391Z,996.06
2022-12-24T11:03:17.124Z,995.95
2022-12-24T11:04:17.142Z,996.00
2022-12-24T11:05:18.079Z,995.96
2022-12-24T11:06:17.110Z,996.03
2022-12-24T11:07:17.099Z,996.06
2022-12-24T11:08:17.209Z,996.01
2022-12-24T11:09:17.095Z,996.06
2022-12-24T11:10:17.104Z,996.02
2022-12-24T11:11:17.188Z,996.06
2022-12-24T11:12:17.063Z,995.99
2022-12-24T11:13:36.226Z,995.99
2022-12-24T11:14:19.096Z,995.98
2022-12-24T11:15:17.056Z,996.02
2022-12-24T11:16:17.076Z,995.98
2022-12-24T11:17:17.055Z,995.95
2022-12-24T11:18:17.049Z,996.04
2022-12-24T11:19:16.995Z,996.05
2022-12-24T11:20:17.059Z,996.05
2022-12-24T11:21:16.991Z,996.07
2022-12-24T11:22:16.989Z,996.00
2022-12-24T11:23:16.967Z,996.00
2022-12-24T11:24:16.956Z,996.03
2022-12-24T11:25:16.947Z,996.06
2022-12-24T11:26:16.962Z,996.03
2022-12-24T11:27:16.947Z,996.05
2022-12-24T11:28:16.912Z,996.08
2022-12-24T11:29:16.911Z,996.02
2022-12-24T11:30:17.007Z,996.11
2022-12-24T11:31:16.996Z,996.02
2022-12-24T11:32:16.948Z,996.03
2022-12-24T11:33:16.920Z,996.11
2022-12-24T11:34:16.911Z,996.02
2022-12-24T11:35:16.883Z,996.04
2022-12-24T11:36:16.905Z,996.15
2022-12-24T11:37:16.845Z,996.13
2022-12-24T11:38:16.846Z,996.10
2022-12-24T11:39:16.833Z,996.10
2022-12-24T11:40:16.811Z,996.15
2022-12-24T11:41:16.856Z,996.12
2022-12-24T11:42:16.927Z,996.17
2022-12-24T11:43:16.815Z,996.13
2022-12-24T11:44:16.826Z,996.10
2022-12-24T11:45:16.775Z,996.13
2022-12-24T11:46:16.847Z,996.12
2022-12-24T11:47:16.841Z,996.18
2022-12-24T11:48:16.752Z,996.19
2022-12-24T11:49:16.806Z,996.17
2022-12-24T11:50:18.435Z,996.17
2022-12-24T11:51:17.788Z,996.17
2022-12-24T11:52:16.745Z,996.17
2022-12-24T11:53:16.876Z,996.17
2022-12-24T11:54:16.773Z,996.18
2022-12-24T11:55:16.976Z,996.15
2022-12-24T11:56:16.776Z,996.15
2022-12-24T11:57:16.717Z,996.15
2022-12-24T11:58:16.659Z,996.14
2022-12-24T11:59:16.702Z,996.20
2022-12-24T12:00:16.691Z,996.17
2022-12-24T12:01:17.697Z,996.18
2022-12-24T12:02:16.777Z,996.18
2022-12-24T12:03:16.751Z,996.21
2022-12-24T12:04:16.806Z,996.21
2022-12-24T12:05:16.659Z,996.19
2022-12-24T12:06:16.639Z,996.22
2022-12-24T12:07:16.788Z,996.23
2022-12-24T12:08:16.652Z,996.21
2022-12-24T12:09:16.662Z,996.20
2022-12-24T12:10:16.717Z,996.23
2022-12-24T12:11:16.810Z,996.27
2022-12-24T12:12:16.613Z,996.32
2022-12-24T12:13:16.685Z,996.31
2022-12-24T12:14:16.589Z,996.28
2022-12-24T12:15:16.666Z,996.28
2022-12-24T12:16:16.573Z,996.26
2022-12-24T12:17:16.619Z,996.24
2022-12-24T12:18:18.101Z,996.25
2022-12-24T12:19:16.632Z,996.35
2022-12-24T12:20:16.562Z,996.32
2022-12-24T12:21:16.544Z,996.30
2022-12-24T12:22:16.506Z,996.21
2022-12-24T12:23:16.510Z,996.24
2022-12-24T12:24:16.560Z,996.22
2022-12-24T12:25:16.505Z,996.28
2022-12-24T12:26:16.471Z,996.21
2022-12-24T12:27:16.566Z,996.20
2022-12-24T12:28:16.536Z,996.20
2022-12-24T12:29:16.443Z,996.22
2022-12-24T12:30:16.456Z,996.21
2022-12-24T12:31:16.976Z,996.18
2022-12-24T12:32:17.186Z,996.20
2022-12-24T12:33:16.589Z,996.21
2022-12-24T12:34:16.619Z,996.27
2022-12-24T12:35:16.435Z,996.31
2022-12-24T12:36:16.615Z,996.30
2022-12-24T12:37:16.408Z,996.35
2022-12-24T12:38:17.007Z,996.28
2022-12-24T12:39:16.368Z,996.30
2022-12-24T12:40:16.447Z,996.25
2022-12-24T12:41:16.484Z,996.31
2022-12-24T12:42:16.485Z,996.19
2022-12-24T12:43:16.361Z,996.26
2022-12-24T12:44:16.332Z,996.35
2022-12-24T12:45:16.364Z,996.31
2022-12-24T12:46:17.524Z,996.32
2022-12-24T12:47:16.327Z,996.37
2022-12-24T12:48:16.463Z,996.39
2022-12-24T12:49:16.325Z,996.42
2022-12-24T12:50:16.475Z,996.35
2022-12-24T12:51:16.323Z,996.47
2022-12-24T12:52:16.326Z,996.49
2022-12-24T12:53:16.277Z,996.41
2022-12-24T12:54:16.255Z,996.44
2022-12-24T12:55:20.497Z,996.40
2022-12-24T12:56:18.543Z,996.39
2022-12-24T12:57:16.330Z,996.38
2022-12-24T12:58:16.272Z,996.37
2022-12-24T12:59:16.290Z,996.36
2022-12-24T13:00:16.240Z,996.44
2022-12-24T13:01:16.342Z,996.35
2022-12-24T13:02:16.320Z,996.39
2022-12-24T13:03:16.305Z,996.38
2022-12-24T13:04:16.137Z,996.43
2022-12-24T13:05:16.122Z,996.38
2022-12-24T13:06:16.119Z,996.42
2022-12-24T13:07:16.123Z,996.52
2022-12-24T13:08:16.222Z,996.45
2022-12-24T13:09:16.109Z,996.48
2022-12-24T13:10:16.139Z,996.45
2022-12-24T13:11:16.122Z,996.49
2022-12-24T13:12:16.146Z,996.53
2022-12-24T13:13:20.438Z,996.51
2022-12-24T13:14:17.166Z,996.49
2022-12-24T13:15:16.072Z,996.52
2022-12-24T13:16:16.109Z,996.61
2022-12-24T13:17:16.062Z,996.54
2022-12-24T13:18:16.131Z,996.53
2022-12-24T13:19:16.094Z,996.55
2022-12-24T13:20:16.035Z,996.54
2022-12-24T13:21:15.995Z,996.55
2022-12-24T13:22:16.079Z,996.63
2022-12-24T13:23:16.009Z,996.63
2022-12-24T13:24:16.045Z,996.61
2022-12-24T13:25:16.001Z,996.60
2022-12-24T13:26:15.952Z,996.63
2022-12-24T13:27:16.042Z,996.63
2022-12-24T13:28:16.186Z,996.63
2022-12-24T13:29:15.973Z,996.63
2022-12-24T13:30:15.954Z,996.68
2022-12-24T13:31:15.964Z,996.68
2022-12-24T13:32:16.091Z,996.69
2022-12-24T13:33:16.156Z,996.69
2022-12-24T13:34:15.886Z,996.77
2022-12-24T13:35:15.923Z,996.78
2022-12-24T13:36:15.894Z,996.83
2022-12-24T13:37:15.919Z,996.84
2022-12-24T13:38:15.907Z,996.83
2022-12-24T13:39:15.932Z,996.86
2022-12-24T13:40:16.150Z,996.83
2022-12-24T13:41:15.908Z,996.81
2022-12-24T13:42:15.872Z,996.84
2022-12-24T13:43:15.845Z,996.87
2022-12-24T13:44:15.816Z,996.92
2022-12-24T13:45:15.857Z,997.04
2022-12-24T13:46:15.951Z,996.95
2022-12-24T13:47:15.913Z,997.00
2022-12-24T13:48:15.826Z,996.99
2022-12-24T13:49:16.013Z,997.01
2022-12-24T13:50:15.847Z,997.01
2022-12-24T13:51:15.959Z,997.02
2022-12-24T13:52:15.929Z,997.03
2022-12-24T13:53:16.068Z,997.08
2022-12-24T13:54:16.059Z,997.10
2022-12-24T13:55:15.792Z,997.14
2022-12-24T13:56:15.763Z,997.20
2022-12-24T13:57:15.799Z,997.12
2022-12-24T13:58:15.809Z,997.12
2022-12-24T13:59:15.771Z,997.18
2022-12-24T14:00:15.800Z,997.29
2022-12-24T14:01:15.933Z,997.22
2022-12-24T14:02:15.773Z,997.28
2022-12-24T14:03:15.719Z,997.20
2022-12-24T14:04:48.069Z,997.25
2022-12-24T14:05:21.151Z,997.30
2022-12-24T14:06:17.660Z,997.28
2022-12-24T14:07:15.619Z,997.27
2022-12-24T14:08:15.647Z,997.30
2022-12-24T14:09:15.622Z,997.28
2022-12-24T14:10:15.628Z,997.29
2022-12-24T14:11:15.841Z,997.35
2022-12-24T14:12:16.957Z,997.30
2022-12-24T14:13:16.602Z,997.31
2022-12-24T14:14:15.614Z,997.27
2022-12-24T14:15:15.609Z,997.30
2022-12-24T14:16:15.769Z,997.33
2022-12-24T14:17:15.586Z,997.32
2022-12-24T14:18:15.567Z,997.30
2022-12-24T14:19:15.589Z,997.34
2022-12-24T14:20:15.523Z,997.38
2022-12-24T14:21:15.518Z,997.36
2022-12-24T14:22:16.509Z,997.34
2022-12-24T14:23:16.222Z,997.36
2022-12-24T14:24:15.546Z,997.39
2022-12-24T14:25:15.572Z,997.37
2022-12-24T14:26:15.480Z,997.33
2022-12-24T14:27:15.544Z,997.39
2022-12-24T14:28:16.005Z,997.44
2022-12-24T14:29:19.871Z,997.37
2022-12-24T14:30:16.447Z,997.38
2022-12-24T14:31:15.548Z,997.43
2022-12-24T14:32:15.539Z,997.48
2022-12-24T14:33:15.430Z,997.54
2022-12-24T14:34:15.436Z,997.50
2022-12-24T14:35:15.440Z,997.48
2022-12-24T14:36:15.409Z,997.49
2022-12-24T14:37:15.413Z,997.50
2022-12-24T14:38:15.423Z,997.50
2022-12-24T14:39:15.379Z,997.48
2022-12-24T14:40:15.380Z,997.50
2022-12-24T14:41:15.393Z,997.49
2022-12-24T14:42:15.360Z,997.55
2022-12-24T14:43:15.365Z,997.54
2022-12-24T14:44:15.382Z,997.55
2022-12-24T14:45:15.425Z,997.54
2022-12-24T14:46:15.551Z,997.49
2022-12-24T14:47:15.338Z,997.53
2022-12-24T14:48:15.336Z,997.49
2022-12-24T14:49:15.297Z,997.47
2022-12-24T14:50:15.308Z,997.40
2022-12-24T14:51:15.335Z,997.40
2022-12-24T14:52:37.987Z,997.45
2022-12-24T14:53:19.323Z,997.43
2022-12-24T14:54:16.285Z,997.43
2022-12-24T14:55:15.291Z,997.40
2022-12-24T14:56:15.267Z,997.42
2022-12-24T14:57:15.308Z,997.44
2022-12-24T14:58:15.255Z,997.54
2022-12-24T14:59:15.198Z,997.45
2022-12-24T15:00:15.264Z,997.52
2022-12-24T15:01:15.337Z,997.51
2022-12-24T15:02:15.422Z,997.51
2022-12-24T15:03:15.222Z,997.54
2022-12-24T15:04:15.204Z,997.61
2022-12-24T15:05:15.304Z,997.64
2022-12-24T15:06:15.188Z,997.67
2022-12-24T15:07:15.295Z,997.70
2022-12-24T15:08:15.295Z,997.68
2022-12-24T15:09:15.132Z,997.67
2022-12-24T15:10:15.161Z,997.76
2022-12-24T15:11:15.147Z,997.76
2022-12-24T15:12:15.128Z,997.90
2022-12-24T15:13:15.102Z,997.89
2022-12-24T15:14:15.142Z,997.86
2022-12-24T15:15:15.153Z,997.86
2022-12-24T15:16:15.138Z,997.89
2022-12-24T15:17:15.168Z,997.89
2022-12-24T15:18:15.097Z,997.94
2022-12-24T15:19:15.088Z,997.97
2022-12-24T15:20:15.067Z,997.96
2022-12-24T15:21:15.088Z,997.98
2022-12-24T15:22:15.255Z,997.97
2022-12-24T15:23:15.030Z,997.94
2022-12-24T15:24:15.063Z,998.00
2022-12-24T15:25:15.021Z,998.01
2022-12-24T15:26:15.015Z,997.98
2022-12-24T15:27:15.035Z,997.99
2022-12-24T15:28:15.020Z,998.01
2022-12-24T15:29:15.028Z,998.04
2022-12-24T15:30:15.041Z,998.03
2022-12-24T15:31:15.127Z,998.08
2022-12-24T15:32:14.983Z,998.03
2022-12-24T15:33:14.994Z,998.07
2022-12-24T15:34:14.951Z,998.09
2022-12-24T15:35:15.055Z,998.12
2022-12-24T15:36:14.942Z,998.15
2022-12-24T15:37:15.067Z,998.11
2022-12-24T15:38:18.727Z,998.18
2022-12-24T15:39:15.931Z,998.19
2022-12-24T15:40:14.902Z,998.20
2022-12-24T15:41:15.114Z,998.22
2022-12-24T15:42:14.928Z,998.15
2022-12-24T15:43:14.998Z,998.19
2022-12-24T15:44:14.943Z,998.25
2022-12-24T15:45:14.917Z,998.23
2022-12-24T15:46:14.958Z,998.24
2022-12-24T15:47:14.907Z,998.23
2022-12-24T15:48:14.885Z,998.28
2022-12-24T15:49:14.848Z,998.32
2022-12-24T15:50:14.904Z,998.33
2022-12-24T15:51:14.837Z,998.37
2022-12-24T15:52:14.952Z,998.39
2022-12-24T15:53:20.252Z,998.41
2022-12-24T15:54:15.802Z,998.46
2022-12-24T15:55:14.802Z,998.53
2022-12-24T15:56:14.927Z,998.55
2022-12-24T15:57:17.498Z,998.56
2022-12-24T15:58:14.816Z,998.63
2022-12-24T15:59:14.839Z,998.58
2022-12-24T16:00:14.853Z,998.61
2022-12-24T16:01:14.943Z,998.62
2022-12-24T16:02:14.960Z,998.59
2022-12-24T16:03:14.860Z,998.59
2022-12-24T16:04:14.764Z,998.65
2022-12-24T16:05:14.726Z,998.65
2022-12-24T16:06:14.700Z,998.68
2022-12-24T16:07:14.724Z,998.67
2022-12-24T16:08:14.785Z,998.66
2022-12-24T16:09:14.713Z,998.68
2022-12-24T16:10:14.794Z,998.70
2022-12-24T16:11:14.681Z,998.66
2022-12-24T16:12:14.647Z,998.68
2022-12-24T16:13:14.657Z,998.64
2022-12-24T16:14:14.688Z,998.71
2022-12-24T16:15:15.649Z,998.70
2022-12-24T16:16:14.754Z,998.75
2022-12-24T16:17:14.613Z,998.76
2022-12-24T16:18:14.604Z,998.74
2022-12-24T16:19:14.627Z,998.80
2022-12-24T16:20:14.680Z,998.85
2022-12-24T16:21:14.751Z,998.85
2022-12-24T16:22:15.633Z,998.82
2022-12-24T16:23:14.599Z,998.91
2022-12-24T16:24:15.573Z,998.82
2022-12-24T16:25:15.155Z,998.85
2022-12-24T16:26:14.615Z,998.86
2022-12-24T16:27:14.685Z,998.86
2022-12-24T16:28:20.254Z,998.84
2022-12-24T16:29:16.545Z,998.89
2022-12-24T16:30:14.511Z,998.85
2022-12-24T16:31:14.586Z,998.87